Accueil
METAR-TAF:

METAR-TAF

Aéroports :

Aéroport du Touquet-Côte d'Opale

Le Touquet, France

latitude: 50-30-53N, longitude: 001-37-39E, altitude: 6 m

Observation

Le bulletin a été fait il y a 27 minutes, à 18:00 UTC
Vent 8 kt de nord-est, variant entre nord et est
Température 24°C
Humidité 65%
Pression 1018 hPa
Visibilité 10 km ou plus
pas de nuages en-dessous de 1500 mètres et pas de cumulonimbus.

METAR: LFAT 151800Z AUTO 05008KT 010V080 CAVOK 24/17 Q1018 NOSIG

Heure: 20:27 (18:27 UTC)

Prévision

Le bulletin a été fait il y a 4 heures et 27 minutes, à 14:00 UTC
Prévision valable du 15 à 15 UTC au 15 à 24 UTC
Vent 10 kt de nord-ouest
Visibilité 10 km ou plus
pas de nuages en-dessous de 1500 mètres et pas de cumulonimbus.
Evoluant progressivement
du 15 à 17 UTC au 15 à 20 UTC
Vent 7 kt de est/nord-est

TAF: LFAT 151400Z 1515/1524 32010KT CAVOK BECMG 1517/1520 07007KT

Observations et prévisions météorologiques de plus de 4000 aéroports (messages METAR et TAF).

Les stations disponibles sont représentées par des disques jaunes et rouges sur la carte.

Passer la souris dessus pour voir le nom de la station.

Cliquer dessus pour voir les observations et prévisions météorologiques.

Pour changer de carte: cliquez sur les boutons verts avec une croix noire pour zoomer, sur le bouton vert avec un tiret pour effectuer un zoom arrière, ou sur les flèches vertes pour les cartes adjacentes.


METAR-TAF: